Time;durP1;ratioP1;P1;durP2;ratioP2;P2;SDS_P1;SDS_P2;PMS_P1;PMS_P2;Temp;Humidity;BMP_temperature;BMP_pressure;BME280_temperature;BME280_humidity;BME280_pressure;Samples;Min_cycle;Max_cycle;Signal;HPM_P1;HPM_P2
2023/06/27 00:00:48;;;;;;;4.47;2.37;;;23.20;35.50;;;;;;20708;6841;118386;-73
2023/06/27 00:03:14;;;;;;;2.95;2.35;;;23.10;35.40;;;;;;20484;6841;307596;-74
2023/06/27 00:05:40;;;;;;;3.50;2.20;;;23.40;35.40;;;;;;20455;6841;305667;-73
2023/06/27 00:08:09;;;;;;;2.07;1.97;;;23.40;35.40;;;;;;20697;6841;117230;-73
2023/06/27 00:10:36;;;;;;;4.20;2.15;;;23.20;35.50;;;;;;20495;6841;287901;-73
2023/06/27 00:13:02;;;;;;;4.60;2.30;;;23.40;35.40;;;;;;20485;6841;306924;-73
2023/06/27 00:15:33;;;;;;;2.60;2.00;;;23.40;35.40;;;;;;20677;6841;141308;-73
2023/06/27 00:17:55;;;;;;;4.03;2.07;;;23.20;35.50;;;;;;20690;6841;118400;-73
2023/06/27 00:20:19;;;;;;;3.25;2.30;;;22.80;35.90;;;;;;20497;6841;307153;-74
2023/06/27 00:22:44;;;;;;;3.40;2.33;;;22.90;36.10;;;;;;20521;6841;311311;-73
2023/06/27 00:25:10;;;;;;;6.70;2.17;;;23.20;35.80;;;;;;20498;6841;307157;-73
2023/06/27 00:27:35;;;;;;;3.60;2.03;;;23.40;35.60;;;;;;20710;6841;117118;-73
2023/06/27 00:30:03;;;;;;;2.70;2.40;;;23.40;35.90;;;;;;20502;6841;282011;-73
2023/06/27 00:32:28;;;;;;;5.05;1.90;;;23.30;35.80;;;;;;20523;6839;306895;-75
2023/06/27 00:34:54;;;;;;;3.10;2.42;;;23.50;35.40;;;;;;20530;6840;277302;-75
2023/06/27 00:37:20;;;;;;;2.20;2.00;;;23.70;35.30;;;;;;20712;6840;117675;-73
2023/06/27 00:39:45;;;;;;;3.58;2.15;;;23.50;35.50;;;;;;20522;6841;307195;-73
2023/06/27 00:42:11;;;;;;;2.63;2.20;;;23.50;35.70;;;;;;20503;6841;277926;-73
2023/06/27 00:44:36;;;;;;;3.00;2.17;;;23.70;35.80;;;;;;20519;6841;278190;-73
2023/06/27 00:47:02;;;;;;;2.90;2.37;;;23.90;35.40;;;;;;20507;6841;296518;-73
2023/06/27 00:49:28;;;;;;;2.50;2.10;;;24.00;35.30;;;;;;20491;6841;337125;-73
2023/06/27 00:51:53;;;;;;;3.07;2.10;;;24.00;34.70;;;;;;20512;6841;290150;-73
2023/06/27 00:54:20;;;;;;;4.45;2.42;;;24.10;34.80;;;;;;20505;6841;299836;-73
2023/06/27 00:56:46;;;;;;;5.90;2.03;;;24.10;34.60;;;;;;20721;6841;117264;-73
2023/06/27 00:59:12;;;;;;;2.73;2.13;;;23.40;36.20;;;;;;20706;6841;117235;-73
2023/06/27 01:01:38;;;;;;;2.67;2.00;;;23.30;35.60;;;;;;20496;6841;307840;-73
2023/06/27 01:04:03;;;;;;;2.10;1.90;;;23.40;35.70;;;;;;20721;6841;117907;-73
2023/06/27 01:06:54;;;;;;;3.72;2.30;;;23.20;35.90;;;;;;20518;6841;282217;-73
2023/06/27 01:09:19;;;;;;;3.10;2.23;;;23.30;36.50;;;;;;20704;6841;121054;-76
2023/06/27 01:11:46;;;;;;;3.17;2.30;;;23.10;36.80;;;;;;20358;6841;282445;-73
2023/06/27 01:14:12;;;;;;;3.40;2.50;;;23.20;37.20;;;;;;20513;6841;299491;-73
2023/06/27 01:16:37;;;;;;;2.83;2.17;;;23.40;36.50;;;;;;20711;6841;117511;-73
2023/06/27 01:19:06;;;;;;;2.07;1.87;;;23.20;36.50;;;;;;20712;6841;117418;-73
2023/06/27 01:21:31;;;;;;;2.50;2.20;;;22.90;36.80;;;;;;20481;6841;278255;-73
2023/06/27 01:23:59;;;;;;;2.20;1.83;;;22.80;36.60;;;;;;20716;6841;119108;-73
2023/06/27 01:26:27;;;;;;;3.77;2.30;;;22.80;36.60;;;;;;20514;6841;277622;-73
2023/06/27 01:28:50;;;;;;;2.10;1.90;;;22.90;36.30;;;;;;20717;6841;119810;-73
2023/06/27 01:31:26;;;;;;;3.47;2.25;;;22.80;36.50;;;;;;20516;6841;299098;-73
2023/06/27 01:33:51;;;;;;;2.80;2.13;;;22.90;36.40;;;;;;20703;6841;119990;-73
2023/06/27 01:36:17;;;;;;;2.40;2.20;;;22.80;36.60;;;;;;20711;6841;117805;-73
2023/06/27 01:38:49;;;;;;;3.15;2.20;;;22.60;37.00;;;;;;20502;6841;311679;-72
2023/06/27 01:41:15;;;;;;;4.90;2.37;;;23.10;36.80;;;;;;20490;6841;277655;-73
2023/06/27 01:43:42;;;;;;;4.45;2.58;;;23.10;36.80;;;;;;20490;6839;278121;-73
2023/06/27 01:46:07;;;;;;;4.03;2.40;;;23.40;36.30;;;;;;20501;6840;307003;-73
2023/06/27 01:48:33;;;;;;;2.50;2.05;;;23.60;35.60;;;;;;20744;6840;118331;-73
2023/06/27 01:50:58;;;;;;;2.83;2.10;;;23.40;36.00;;;;;;20746;6841;117859;-73
2023/06/27 01:53:24;;;;;;;2.70;2.10;;;23.10;36.40;;;;;;20734;6841;119245;-73
2023/06/27 01:55:51;;;;;;;2.57;2.17;;;22.80;36.70;;;;;;20510;6840;278042;-73
2023/06/27 01:58:19;;;;;;;2.90;2.12;;;22.90;36.50;;;;;;20486;6841;281068;-73
2023/06/27 02:00:45;;;;;;;2.07;1.87;;;23.20;36.00;;;;;;20731;6841;117504;-73
2023/06/27 02:03:10;;;;;;;3.70;2.07;;;23.10;36.20;;;;;;20728;6841;118457;-73
2023/06/27 02:05:36;;;;;;;3.83;2.30;;;22.80;36.60;;;;;;20485;6841;301403;-73
2023/06/27 02:08:02;;;;;;;3.50;2.17;;;22.90;36.50;;;;;;20512;6841;311940;-73
2023/06/27 02:10:27;;;;;;;3.10;2.10;;;23.20;36.60;;;;;;20714;6841;118461;-73
2023/06/27 02:12:53;;;;;;;4.32;2.22;;;23.10;36.80;;;;;;20514;6841;307630;-73
2023/06/27 02:15:18;;;;;;;3.95;2.10;;;23.10;37.30;;;;;;20720;6841;120494;-75
2023/06/27 02:17:45;;;;;;;4.80;2.30;;;23.00;37.40;;;;;;20515;6841;279946;-73
2023/06/27 02:20:11;;;;;;;2.77;2.37;;;23.10;37.90;;;;;;20516;6841;307012;-73
2023/06/27 02:22:36;;;;;;;2.50;2.30;;;23.30;37.40;;;;;;20513;6841;278101;-73
2023/06/27 02:25:02;;;;;;;2.57;2.23;;;23.40;37.50;;;;;;20523;6841;319755;-72
2023/06/27 02:27:29;;;;;;;2.60;2.10;;;23.40;37.70;;;;;;20704;6841;121014;-73
2023/06/27 02:29:54;;;;;;;2.23;2.03;;;23.20;38.10;;;;;;20723;6841;117350;-73
2023/06/27 02:32:21;;;;;;;3.33;2.20;;;22.70;38.50;;;;;;20505;6841;337465;-73
2023/06/27 02:34:47;;;;;;;2.55;2.30;;;22.70;39.20;;;;;;20502;6841;336255;-73
2023/06/27 02:37:12;;;;;;;4.27;2.60;;;22.90;38.80;;;;;;20723;6841;123064;-72
2023/06/27 02:39:38;;;;;;;3.77;2.30;;;22.70;38.80;;;;;;20700;6841;120703;-73
2023/06/27 02:42:04;;;;;;;4.93;2.37;;;22.10;39.40;;;;;;20727;6841;117807;-73
2023/06/27 02:44:31;;;;;;;3.10;2.20;;;22.20;39.60;;;;;;20498;6841;311023;-72
2023/06/27 02:46:56;;;;;;;2.77;2.10;;;22.20;39.60;;;;;;20718;6841;117213;-73
2023/06/27 02:49:22;;;;;;;4.20;2.20;;;22.20;39.50;;;;;;20701;6841;119935;-73
2023/06/27 02:51:49;;;;;;;3.10;2.58;;;22.00;39.80;;;;;;20498;6841;307300;-73
2023/06/27 02:54:14;;;;;;;3.23;2.70;;;22.20;39.70;;;;;;20509;6839;298033;-73
2023/06/27 02:56:40;;;;;;;3.20;2.40;;;22.50;39.00;;;;;;20513;6840;277811;-73
2023/06/27 02:59:05;;;;;;;2.78;2.58;;;22.80;38.50;;;;;;20510;6840;307901;-73
2023/06/27 03:01:33;;;;;;;3.00;2.70;;;23.00;38.40;;;;;;20704;6841;118396;-72
2023/06/27 03:03:58;;;;;;;2.70;2.50;;;22.80;38.50;;;;;;20511;6841;306917;-73
2023/06/27 03:06:24;;;;;;;2.80;2.00;;;22.80;38.90;;;;;;20727;6841;117185;-73
2023/06/27 03:08:49;;;;;;;3.30;2.37;;;22.70;38.90;;;;;;20507;6841;302903;-75
2023/06/27 03:11:15;;;;;;;3.00;2.40;;;22.70;38.00;;;;;;20729;6841;117712;-73
2023/06/27 03:13:42;;;;;;;4.68;2.55;;;22.60;38.40;;;;;;20489;6841;286194;-73
2023/06/27 03:16:07;;;;;;;3.35;2.50;;;22.60;38.30;;;;;;20515;6841;277819;-73
2023/06/27 03:18:33;;;;;;;2.53;2.30;;;22.80;38.40;;;;;;20516;6841;307142;-73
2023/06/27 03:20:58;;;;;;;6.00;2.62;;;22.90;38.20;;;;;;20501;6841;336641;-73
2023/06/27 03:23:24;;;;;;;2.43;2.10;;;23.00;38.20;;;;;;20704;6841;117203;-74
2023/06/27 03:25:50;;;;;;;4.20;2.20;;;22.80;38.50;;;;;;20720;6841;118095;-73
2023/06/27 03:28:17;;;;;;;3.17;2.50;;;22.40;38.90;;;;;;20719;6841;117614;-73
2023/06/27 03:30:43;;;;;;;3.73;2.37;;;22.00;39.20;;;;;;20726;6841;117648;-73
2023/06/27 03:33:08;;;;;;;3.75;2.47;;;21.80;39.60;;;;;;20506;6841;278206;-73
2023/06/27 03:35:33;;;;;;;4.83;2.50;;;21.90;39.50;;;;;;20489;6841;307614;-73
2023/06/27 03:37:59;;;;;;;3.10;2.57;;;22.20;39.10;;;;;;20713;6841;117423;-72
2023/06/27 03:40:25;;;;;;;3.60;2.03;;;22.10;39.30;;;;;;20689;6841;117916;-75
2023/06/27 03:42:50;;;;;;;3.22;2.45;;;21.90;39.90;;;;;;20471;6841;277704;-75
2023/06/27 03:45:17;;;;;;;2.60;2.40;;;22.00;40.10;;;;;;20731;6841;117704;-75
2023/06/27 03:47:42;;;;;;;3.63;2.60;;;21.90;40.10;;;;;;20500;6841;282278;-75
2023/06/27 03:50:08;;;;;;;3.33;2.60;;;22.00;40.50;;;;;;20507;6841;306754;-74
2023/06/27 03:52:34;;;;;;;2.47;2.27;;;22.20;39.90;;;;;;20703;6841;117551;-72
2023/06/27 03:54:59;;;;;;;2.30;2.10;;;22.10;40.00;;;;;;20704;6841;117138;-73
2023/06/27 03:57:25;;;;;;;2.63;2.43;;;21.80;40.30;;;;;;20704;6841;117243;-73
2023/06/27 03:59:50;;;;;;;2.87;2.20;;;21.50;40.70;;;;;;20523;6841;307131;-73
2023/06/27 04:02:17;;;;;;;2.50;2.15;;;21.70;40.90;;;;;;20714;6841;117722;-73
2023/06/27 04:04:42;;;;;;;2.70;2.50;;;21.70;40.90;;;;;;20733;6841;117083;-73
2023/06/27 04:07:08;;;;;;;7.47;2.47;;;21.50;41.00;;;;;;20727;6839;117593;-75
2023/06/27 04:09:33;;;;;;;3.85;2.62;;;21.40;41.20;;;;;;20500;6840;307593;-75
2023/06/27 04:11:59;;;;;;;2.40;2.20;;;21.60;41.30;;;;;;20730;6840;117697;-73
2023/06/27 04:14:25;;;;;;;4.70;2.47;;;21.40;42.00;;;;;;20721;6841;118212;-72
2023/06/27 04:16:51;;;;;;;2.97;2.70;;;21.30;41.20;;;;;;20522;6841;310424;-73
2023/06/27 04:19:16;;;;;;;3.67;2.70;;;21.60;41.60;;;;;;20503;6841;306247;-73
2023/06/27 04:21:43;;;;;;;3.67;2.70;;;21.90;42.10;;;;;;20479;6841;295995;-72
2023/06/27 04:24:08;;;;;;;3.30;2.70;;;22.20;41.10;;;;;;20504;6841;277689;-73
2023/06/27 04:26:33;;;;;;;2.80;2.47;;;22.30;40.60;;;;;;20515;6841;311946;-75
2023/06/27 04:29:00;;;;;;;2.13;2.00;;;22.40;40.40;;;;;;20732;6841;123908;-73
2023/06/27 04:31:25;;;;;;;3.33;2.57;;;22.30;40.30;;;;;;20715;6841;118075;-73
2023/06/27 04:33:55;;;;;;;4.35;2.15;;;22.00;40.60;;;;;;20743;6841;117399;-74
2023/06/27 04:36:20;;;;;;;2.60;2.40;;;21.80;40.80;;;;;;20720;6841;118065;-74
2023/06/27 04:38:43;;;;;;;2.60;2.40;;;21.60;41.10;;;;;;20722;6841;118372;-74
2023/06/27 04:41:08;;;;;;;2.87;2.60;;;21.50;41.30;;;;;;20518;6841;278112;-74
2023/06/27 04:43:35;;;;;;;2.73;2.30;;;21.70;41.40;;;;;;20701;6841;118975;-74
2023/06/27 04:46:00;;;;;;;3.30;2.70;;;21.70;41.10;;;;;;20706;6841;118946;-74
2023/06/27 04:48:26;;;;;;;4.40;2.70;;;21.60;41.10;;;;;;20514;6841;340065;-74
2023/06/27 04:50:51;;;;;;;4.97;2.57;;;21.80;40.70;;;;;;20725;6841;123024;-75
2023/06/27 04:53:20;;;;;;;2.62;2.35;;;21.90;40.70;;;;;;20534;6841;277343;-74
2023/06/27 04:55:52;;;;;;;4.60;2.13;;;22.00;40.50;;;;;;20743;6841;117400;-77
2023/06/27 04:58:18;;;;;;;2.53;2.17;;;22.00;40.50;;;;;;20733;6841;117225;-75
2023/06/27 05:00:44;;;;;;;2.37;2.17;;;21.80;40.60;;;;;;20712;6841;117791;-75
2023/06/27 05:03:09;;;;;;;2.30;2.10;;;21.50;40.80;;;;;;20717;6841;117858;-75
2023/06/27 05:05:34;;;;;;;4.30;2.10;;;21.50;40.80;;;;;;20689;6841;144451;-74
2023/06/27 05:08:01;;;;;;;4.43;2.75;;;21.40;40.90;;;;;;20507;6841;310535;-77
2023/06/27 05:10:27;;;;;;;2.53;2.33;;;21.80;40.80;;;;;;20728;6841;121207;-76
2023/06/27 05:12:52;;;;;;;2.30;2.10;;;21.80;40.50;;;;;;20721;6841;124182;-76
2023/06/27 05:15:18;;;;;;;3.90;2.35;;;21.80;40.30;;;;;;20712;6841;117729;-79
2023/06/27 05:17:44;;;;;;;3.80;2.53;;;21.70;40.80;;;;;;20476;6839;307261;-77
2023/06/27 05:20:12;;;;;;;2.85;2.58;;;22.00;40.50;;;;;;20490;6840;312917;-77
2023/06/27 05:22:35;;;;;;;4.33;2.10;;;22.50;39.80;;;;;;20709;6840;121248;-79
2023/06/27 05:25:02;;;;;;;2.80;2.60;;;22.50;39.10;;;;;;20565;6841;319496;-78
2023/06/27 05:27:29;;;;;;;5.60;2.40;;;22.60;39.30;;;;;;20798;6841;122443;-76
2023/06/27 05:29:55;;;;;;;3.17;2.53;;;22.60;39.40;;;;;;20581;6841;335845;-76
2023/06/27 05:32:20;;;;;;;4.47;2.60;;;22.70;39.30;;;;;;20805;6841;116788;-73
2023/06/27 05:34:46;;;;;;;4.80;2.60;;;22.60;39.50;;;;;;20868;6619;66389;-73
2023/06/27 05:37:21;;;;;;;5.53;2.70;;;22.30;39.80;;;;;;20885;6751;116282;-78
2023/06/27 05:39:57;;;;;;;2.93;2.43;;;22.10;40.90;;;;;;20930;6736;117413;-78
2023/06/27 05:42:33;;;;;;;2.50;2.30;;;21.90;40.50;;;;;;20879;6736;114469;-79
2023/06/27 05:45:10;;;;;;;3.00;2.73;;;21.80;40.80;;;;;;20492;6756;310620;-80
2023/06/27 05:47:45;;;;;;;3.57;2.13;;;22.10;41.00;;;;;;20865;6739;118793;-79
2023/06/27 05:50:23;;;;;;;2.90;2.70;;;22.40;40.20;;;;;;20594;6762;277633;-80
2023/06/27 05:52:59;;;;;;;2.30;1.90;;;22.40;40.20;;;;;;20851;6744;117653;-78
2023/06/27 05:55:34;;;;;;;3.30;2.33;;;22.40;40.40;;;;;;20730;6756;147893;-79
2023/06/27 05:58:11;;;;;;;4.77;2.50;;;22.20;40.60;;;;;;20720;6711;277048;-79
2023/06/27 06:00:46;;;;;;;3.07;2.33;;;22.60;40.70;;;;;;20974;6726;67668;-79
2023/06/27 06:03:22;;;;;;;4.33;2.60;;;22.60;40.40;;;;;;20673;6726;303433;-78
2023/06/27 06:05:57;;;;;;;4.65;2.72;;;22.90;39.60;;;;;;20553;6726;337835;-79
2023/06/27 06:08:33;;;;;;;3.90;2.80;;;23.30;39.10;;;;;;20586;6813;306343;-80
2023/06/27 06:11:09;;;;;;;3.20;2.50;;;23.60;38.70;;;;;;20858;6756;117368;-80
2023/06/27 06:13:44;;;;;;;3.07;2.53;;;23.50;39.00;;;;;;20617;6741;306503;-80
2023/06/27 06:16:20;;;;;;;3.43;2.57;;;23.70;39.10;;;;;;20723;6754;118176;-81
2023/06/27 06:18:55;;;;;;;3.00;2.63;;;23.80;39.30;;;;;;20663;6729;306084;-80
2023/06/27 06:21:31;;;;;;;2.87;2.33;;;24.20;37.70;;;;;;20860;6740;117325;-80
2023/06/27 06:24:10;;;;;;;2.30;2.10;;;24.40;38.00;;;;;;20872;6740;117976;-81
2023/06/27 06:26:45;;;;;;;2.53;2.33;;;24.40;38.10;;;;;;20857;6744;116842;-80
2023/06/27 06:29:21;;;;;;;3.67;2.43;;;24.30;37.80;;;;;;20594;6750;311130;-81
2023/06/27 06:31:57;;;;;;;4.83;2.40;;;24.50;36.10;;;;;;20890;6732;121217;-80
2023/06/27 06:34:32;;;;;;;4.53;2.30;;;24.60;36.60;;;;;;20749;6772;117570;-80
2023/06/27 06:37:08;;;;;;;3.00;2.50;;;24.50;36.80;;;;;;20634;6756;277357;-80
2023/06/27 06:39:43;;;;;;;4.40;2.13;;;24.70;36.10;;;;;;20817;6749;117427;-80
2023/06/27 06:42:23;;;;;;;4.73;2.63;;;25.10;34.70;;;;;;20652;6739;310003;-80
2023/06/27 06:44:58;;;;;;;4.17;2.30;;;25.10;34.70;;;;;;20551;6752;308879;-81
2023/06/27 06:47:31;;;;;;;4.20;2.50;;;25.50;34.10;;;;;;20830;6739;119028;-80
2023/06/27 06:50:08;;;;;;;2.50;2.30;;;25.50;34.50;;;;;;20670;6739;305182;-80
2023/06/27 06:52:43;;;;;;;8.33;2.50;;;25.80;32.10;;;;;;20888;6739;117061;-80
2023/06/27 06:55:23;;;;;;;2.80;2.50;;;26.00;33.00;;;;;;20559;6739;307436;-82
2023/06/27 06:57:56;;;;;;;4.33;2.60;;;26.90;31.50;;;;;;20633;6754;276923;-81
2023/06/27 07:00:35;;;;;;;4.43;2.35;;;26.90;31.30;;;;;;20612;6758;306549;-79
2023/06/27 07:03:09;;;;;;;3.80;2.53;;;27.60;30.10;;;;;;20610;6758;335823;-80
2023/06/27 07:05:43;;;;;;;4.70;2.40;;;28.20;29.80;;;;;;20692;6751;118442;-80
2023/06/27 07:08:19;;;;;;;2.60;2.40;;;28.20;29.90;;;;;;20620;6753;282350;-79
2023/06/27 07:10:55;;;;;;;4.03;2.33;;;28.30;29.10;;;;;;20636;6754;306263;-79
2023/06/27 07:13:30;;;;;;;3.77;2.10;;;28.70;29.00;;;;;;20841;6747;117436;-79
2023/06/27 07:16:06;;;;;;;2.80;2.30;;;28.60;29.70;;;;;;20701;6747;120425;-79
2023/06/27 07:18:43;;;;;;;3.53;2.07;;;28.40;30.00;;;;;;20837;6751;117434;-78
2023/06/27 07:21:18;;;;;;;4.77;2.37;;;28.30;30.40;;;;;;20860;6747;116974;-78
2023/06/27 07:23:54;;;;;;;4.23;2.23;;;28.30;30.60;;;;;;20835;6753;117270;-78
2023/06/27 07:26:32;;;;;;;2.40;1.97;;;28.40;30.80;;;;;;20653;6812;117516;-77
2023/06/27 07:29:06;;;;;;;2.50;2.30;;;28.40;30.60;;;;;;20769;6771;117754;-78
2023/06/27 07:31:42;;;;;;;2.55;2.35;;;28.50;30.60;;;;;;20627;6739;310543;-77
2023/06/27 07:34:18;;;;;;;3.80;2.40;;;28.90;29.30;;;;;;20830;6752;117719;-77
2023/06/27 07:36:53;;;;;;;3.73;2.57;;;29.10;29.40;;;;;;20852;6743;117106;-77
2023/06/27 07:39:29;;;;;;;4.77;2.43;;;28.80;29.50;;;;;;20590;6758;275939;-78
2023/06/27 07:42:04;;;;;;;3.10;2.40;;;29.00;28.30;;;;;;20587;6768;282137;-78
2023/06/27 07:44:40;;;;;;;14.03;3.90;;;29.10;27.40;;;;;;20770;6764;123239;-78
2023/06/27 07:47:16;;;;;;;39.90;4.70;;;29.00;27.90;;;;;;20941;6726;116879;-78
2023/06/27 07:49:51;;;;;;;2.43;2.23;;;28.60;28.50;;;;;;20947;6726;117624;-77
2023/06/27 07:52:28;;;;;;;4.00;2.40;;;28.40;29.30;;;;;;20951;6726;116693;-77
2023/06/27 07:55:04;;;;;;;5.87;2.47;;;28.40;29.20;;;;;;20653;6726;315428;-77
2023/06/27 07:57:40;;;;;;;3.03;2.20;;;28.60;28.30;;;;;;20964;6716;116768;-77
2023/06/27 08:00:16;;;;;;;4.63;2.53;;;28.70;28.60;;;;;;20701;6729;309976;-77
2023/06/27 08:02:51;;;;;;;4.43;2.62;;;29.00;27.80;;;;;;20649;6744;310352;-77
2023/06/27 08:05:28;;;;;;;4.43;2.57;;;29.30;27.60;;;;;;20785;6731;117759;-78
2023/06/27 08:08:03;;;;;;;1.93;1.83;;;29.20;27.80;;;;;;20852;6749;121794;-77
2023/06/27 08:10:38;;;;;;;4.70;2.30;;;29.00;28.20;;;;;;20854;6749;116910;-77
2023/06/27 08:13:14;;;;;;;4.47;2.50;;;28.90;28.40;;;;;;20914;6731;116854;-77
2023/06/27 08:15:49;;;;;;;3.07;2.57;;;28.80;28.70;;;;;;20722;6757;117761;-77
2023/06/27 08:18:25;;;;;;;4.77;2.50;;;28.90;29.10;;;;;;20813;6753;116956;-77
2023/06/27 08:21:04;;;;;;;5.77;2.70;;;28.90;28.30;;;;;;20866;6743;117050;-77
2023/06/27 08:23:36;;;;;;;4.40;2.40;;;28.90;28.20;;;;;;20850;6743;123137;-77
2023/06/27 08:26:16;;;;;;;4.23;2.20;;;29.30;27.90;;;;;;20432;6758;309216;-77
2023/06/27 08:28:52;;;;;;;3.90;2.10;;;29.20;27.80;;;;;;20808;6762;117240;-77
2023/06/27 08:31:28;;;;;;;3.13;2.70;;;29.70;27.70;;;;;;20573;6771;310567;-78
2023/06/27 08:34:04;;;;;;;3.93;2.50;;;30.20;26.50;;;;;;20869;6746;117185;-78
2023/06/27 08:36:39;;;;;;;3.20;2.30;;;30.30;26.60;;;;;;20693;6735;277187;-78
2023/06/27 08:39:18;;;;;;;2.27;2.03;;;30.40;26.30;;;;;;20868;6732;116940;-78
2023/06/27 08:41:56;;;;;;;4.53;2.60;;;30.20;26.50;;;;;;20812;6812;117528;-78
2023/06/27 08:44:29;;;;;;;2.53;2.30;;;29.80;26.90;;;;;;20889;6726;116720;-78
2023/06/27 08:47:05;;;;;;;4.63;2.67;;;29.60;27.20;;;;;;20855;6753;117436;-78
2023/06/27 08:49:41;;;;;;;2.73;2.20;;;29.30;27.10;;;;;;20817;6752;117079;-78
2023/06/27 08:52:21;;;;;;;2.63;2.10;;;29.00;27.80;;;;;;20628;6753;306184;-78
2023/06/27 08:54:54;;;;;;;5.07;2.40;;;29.30;27.50;;;;;;20563;6752;341271;-78
2023/06/27 08:57:30;;;;;;;2.80;2.30;;;30.00;27.40;;;;;;20814;6742;116902;-77
2023/06/27 09:00:11;;;;;;;4.83;2.67;;;30.20;27.30;;;;;;20653;6745;280056;-78
2023/06/27 09:02:46;;;;;;;3.37;2.13;;;30.60;26.50;;;;;;20848;6752;117011;-78
2023/06/27 09:05:21;;;;;;;4.47;2.57;;;30.70;26.40;;;;;;20451;6772;313599;-78
2023/06/27 09:07:59;;;;;;;2.90;2.60;;;30.70;25.90;;;;;;20634;6755;276625;-78
2023/06/27 09:10:35;;;;;;;3.95;2.80;;;30.70;25.40;;;;;;20630;6756;306714;-77
2023/06/27 09:13:11;;;;;;;3.00;2.40;;;30.70;25.70;;;;;;20813;6757;116223;-77
2023/06/27 09:15:46;;;;;;;6.17;2.50;;;30.50;26.10;;;;;;20706;6761;117694;-78
2023/06/27 09:18:26;;;;;;;3.53;2.70;;;30.10;26.30;;;;;;20557;6772;307367;-77
2023/06/27 09:20:58;;;;;;;4.33;2.50;;;30.10;26.00;;;;;;20820;6756;121084;-78
2023/06/27 09:23:35;;;;;;;4.73;2.50;;;30.00;26.30;;;;;;20547;6770;277301;-78
2023/06/27 09:26:13;;;;;;;3.60;2.20;;;30.00;26.30;;;;;;20649;6763;117829;-77
2023/06/27 09:28:49;;;;;;;4.07;2.27;;;30.00;26.30;;;;;;20791;6767;117480;-77
2023/06/27 09:31:25;;;;;;;2.93;2.63;;;30.10;25.90;;;;;;20599;6752;276975;-77
2023/06/27 09:34:09;;;;;;;2.93;2.30;;;30.10;25.90;;;;;;20788;6767;116417;-78
2023/06/27 09:36:43;;;;;;;3.00;2.70;;;30.20;26.10;;;;;;20583;6766;304458;-78
2023/06/27 09:39:20;;;;;;;2.50;2.30;;;30.50;26.20;;;;;;20795;6767;119373;-78
2023/06/27 09:41:57;;;;;;;2.45;2.25;;;30.40;26.40;;;;;;20575;6767;306060;-81
2023/06/27 09:44:33;;;;;;;2.17;2.07;;;30.60;27.50;;;;;;20791;6808;117574;-78
2023/06/27 09:47:09;;;;;;;2.83;1.90;;;30.70;27.30;;;;;;20791;6767;117141;-79
2023/06/27 09:49:48;;;;;;;2.93;2.50;;;30.80;26.60;;;;;;20657;6737;276743;-82
2023/06/27 09:52:22;;;;;;;2.97;2.27;;;30.80;26.50;;;;;;20649;6752;305572;-77
2023/06/27 09:54:58;;;;;;;2.50;2.27;;;31.10;25.80;;;;;;20562;6752;283340;-77
2023/06/27 09:57:33;;;;;;;3.97;2.33;;;31.20;25.80;;;;;;20599;6755;307017;-81
2023/06/27 10:00:11;;;;;;;2.77;2.30;;;31.30;25.80;;;;;;20673;6752;276386;-76
2023/06/27 10:02:48;;;;;;;2.63;2.20;;;30.90;25.90;;;;;;20895;6737;116880;-75
2023/06/27 10:05:24;;;;;;;3.37;2.20;;;30.80;25.90;;;;;;20500;6752;311591;-74
2023/06/27 10:08:00;;;;;;;2.67;2.30;;;30.80;26.10;;;;;;20670;6740;306653;-80
2023/06/27 10:10:35;;;;;;;3.67;2.37;;;30.90;25.70;;;;;;20683;6736;276071;-76
2023/06/27 10:13:14;;;;;;;3.20;2.40;;;30.90;25.50;;;;;;20622;6751;297396;-76
2023/06/27 10:15:47;;;;;;;2.87;2.30;;;30.90;26.00;;;;;;20447;6770;318782;-79
2023/06/27 10:18:23;;;;;;;3.03;2.40;;;30.90;25.80;;;;;;20614;6752;305592;-75
2023/06/27 10:20:58;;;;;;;2.97;2.47;;;30.90;25.80;;;;;;20852;6748;116967;-75
2023/06/27 10:23:34;;;;;;;4.30;2.50;;;30.60;26.10;;;;;;20613;6748;278435;-76
2023/06/27 10:26:09;;;;;;;3.63;2.70;;;30.70;26.20;;;;;;20642;6763;117310;-76
2023/06/27 10:28:48;;;;;;;2.57;2.20;;;30.60;26.30;;;;;;20829;6766;117167;-75
2023/06/27 10:31:38;;;;;;;3.27;2.60;;;30.30;26.50;;;;;;20581;6763;310350;-75
2023/06/27 10:34:20;;;;;;;3.33;2.57;;;30.80;25.90;;;;;;20616;6751;290733;-75
2023/06/27 10:36:58;;;;;;;13.38;7.28;;;30.80;25.90;;;;;;20643;6746;279481;-76
2023/06/27 10:39:34;;;;;;;4.63;2.70;;;31.00;25.50;;;;;;20621;6746;280841;-74
2023/06/27 10:42:18;;;;;;;3.33;2.83;;;31.00;25.00;;;;;;20652;6752;306633;-76
2023/06/27 10:45:12;;;;;;;4.17;2.60;;;31.00;25.30;;;;;;20768;6756;119514;-75
2023/06/27 10:47:47;;;;;;;3.97;2.78;;;30.70;25.50;;;;;;20549;6771;308717;-77
2023/06/27 10:50:25;;;;;;;3.20;2.40;;;30.60;26.30;;;;;;20840;6756;117701;-80
2023/06/27 10:53:04;;;;;;;11.23;4.80;;;30.50;26.20;;;;;;20620;6756;282323;-77
2023/06/27 10:55:38;;;;;;;3.03;2.83;;;30.70;26.10;;;;;;20715;6752;127431;-75
2023/06/27 10:58:14;;;;;;;3.70;2.60;;;30.60;25.80;;;;;;20627;6752;310573;-75
2023/06/27 11:00:50;;;;;;;2.43;2.27;;;30.70;25.40;;;;;;20840;6748;117078;-76
2023/06/27 11:03:28;;;;;;;4.63;2.33;;;30.60;25.50;;;;;;20783;6763;117480;-76
2023/06/27 11:06:02;;;;;;;4.93;3.03;;;30.40;25.70;;;;;;20657;6767;117610;-77
2023/06/27 11:08:40;;;;;;;4.33;2.60;;;30.20;25.90;;;;;;20907;6737;117121;-79
2023/06/27 11:11:16;;;;;;;2.50;2.30;;;30.00;26.10;;;;;;20845;6752;117552;-80
2023/06/27 11:13:53;;;;;;;3.78;2.53;;;29.70;26.20;;;;;;20602;6751;340537;-78
2023/06/27 11:16:28;;;;;;;2.70;2.50;;;30.00;26.50;;;;;;20692;6741;117646;-82
2023/06/27 11:19:10;;;;;;;4.67;2.30;;;30.00;26.30;;;;;;20909;6736;120869;-79
2023/06/27 11:21:45;;;;;;;2.73;2.27;;;29.80;26.40;;;;;;20833;6751;117500;-80
2023/06/27 11:24:17;;;;;;;2.50;2.30;;;29.70;26.50;;;;;;20632;6751;305623;-86
2023/06/27 11:26:52;;;;;;;4.07;2.33;;;29.90;26.00;;;;;;20619;6761;306281;-79
2023/06/27 11:29:29;;;;;;;2.40;2.17;;;30.20;25.70;;;;;;20804;6751;121392;-79
2023/06/27 11:32:05;;;;;;;4.65;2.50;;;30.20;25.60;;;;;;20578;6748;306077;-79
2023/06/27 11:34:41;;;;;;;4.17;2.30;;;30.30;25.50;;;;;;20543;6763;279988;-79
2023/06/27 11:37:18;;;;;;;3.63;2.30;;;30.70;25.50;;;;;;20619;6753;280988;-79
2023/06/27 11:39:55;;;;;;;5.27;2.40;;;30.70;25.00;;;;;;20644;6753;308312;-80
2023/06/27 11:42:33;;;;;;;3.93;2.57;;;30.70;25.00;;;;;;20850;6753;117155;-83
2023/06/27 11:45:12;;;;;;;3.77;2.30;;;30.30;25.20;;;;;;20635;6783;307329;-81
2023/06/27 11:47:47;;;;;;;9.27;3.50;;;30.30;25.40;;;;;;20959;6716;116622;-80
2023/06/27 11:50:23;;;;;;;4.13;2.70;;;30.10;25.80;;;;;;20663;6742;297451;-79
2023/06/27 11:53:00;;;;;;;3.37;2.50;;;30.10;25.80;;;;;;20577;6813;284029;-81
2023/06/27 11:55:36;;;;;;;2.80;2.60;;;30.30;25.60;;;;;;20505;6757;280159;-80
2023/06/27 11:58:13;;;;;;;5.13;2.70;;;30.40;25.70;;;;;;20574;6772;279093;-80
2023/06/27 12:00:48;;;;;;;3.55;2.75;;;30.40;25.70;;;;;;20609;6812;277956;-80
2023/06/27 12:03:24;;;;;;;4.30;2.80;;;30.30;25.80;;;;;;20610;6756;283547;-80
2023/06/27 12:06:08;;;;;;;3.10;2.50;;;30.30;25.80;;;;;;20138;6873;279085;-81
2023/06/27 12:08:35;;;;;;;7.13;3.10;;;30.20;26.00;;;;;;20580;6771;306423;-82
2023/06/27 12:11:18;;;;;;;3.50;2.70;;;30.10;26.20;;;;;;20618;6756;339877;-80
2023/06/27 12:13:47;;;;;;;5.23;2.63;;;30.10;26.20;;;;;;20808;6756;117475;-81
2023/06/27 12:16:27;;;;;;;3.30;2.47;;;29.90;26.40;;;;;;20698;6783;114812;-80
2023/06/27 12:19:03;;;;;;;2.67;2.47;;;29.50;26.60;;;;;;20871;6738;117512;-80
2023/06/27 12:21:39;;;;;;;3.40;2.40;;;29.20;26.70;;;;;;20901;6728;117162;-80
2023/06/27 12:24:15;;;;;;;5.68;2.90;;;28.80;26.90;;;;;;20685;6731;306152;-80
2023/06/27 12:26:50;;;;;;;3.70;2.55;;;29.00;26.50;;;;;;20690;6735;310168;-81
2023/06/27 12:29:27;;;;;;;4.70;2.83;;;29.40;27.10;;;;;;20692;6734;305781;-81
2023/06/27 12:32:04;;;;;;;4.33;2.90;;;29.70;26.50;;;;;;20692;6735;277529;-78
2023/06/27 12:34:37;;;;;;;3.03;2.72;;;29.80;26.10;;;;;;20659;6735;281392;-80
2023/06/27 12:37:13;;;;;;;3.80;2.70;;;30.00;26.40;;;;;;20691;6735;338286;-82
2023/06/27 12:39:51;;;;;;;3.63;2.40;;;29.90;26.00;;;;;;20896;6735;118877;-79
2023/06/27 12:42:24;;;;;;;5.28;2.72;;;29.70;26.20;;;;;;20717;6791;328431;-80
2023/06/27 12:45:03;;;;;;;2.80;2.50;;;29.60;26.50;;;;;;20586;6750;308795;-78
2023/06/27 12:47:36;;;;;;;4.07;2.50;;;29.90;26.90;;;;;;20811;6753;143207;-76
2023/06/27 12:50:11;;;;;;;5.40;2.73;;;29.70;26.40;;;;;;20824;6760;117128;-76
2023/06/27 12:52:50;;;;;;;3.10;2.50;;;29.50;26.70;;;;;;20673;6740;306500;-76
2023/06/27 12:55:22;;;;;;;3.73;2.50;;;29.70;26.50;;;;;;20744;6745;120587;-76
2023/06/27 12:57:59;;;;;;;19.83;17.97;;;29.60;26.50;;;;;;20862;6747;123300;-76